Accueil
METAR-TAF:

METAR-TAF

Aéroports :

Aéroport de Tenerife-Sud

Ténérife Sud, Espagne

latitude: 28-03N, longitude: 016-34W, altitude: 64 m

Observation

Le bulletin a été fait il y a 35 minutes, à 18:30 UTC
Vent 13 kt de est/nord-est
Température 25°C
Humidité 65%
Pression 1019 hPa
Visibilité 10 km ou plus
Quelques nuages à une hauteur de 2500 ft

METAR: GCTS 261830Z 07013KT 9999 FEW025 25/18 Q1019 NOSIG

Heure: 20:05 (19:05 UTC)

Prévision

Le bulletin a été fait il y a 5 heures et 5 minutes, à 14:00 UTC
Prévision valable du 26 à 15 UTC au 27 à 15 UTC
Vent 18 kt de est
Visibilité 10 km ou plus
pas de nuages en-dessous de 1500 mètres et pas de cumulonimbus.
Evoluant progressivement
du 26 à 20 UTC au 26 à 22 UTC
Vent 10 kt de nord/nord-est
Evoluant progressivement
du 27 à 08 UTC au 27 à 10 UTC
Vent 19 kt de est

TAF: GCTS 261400Z 2615/2715 09018KT CAVOK TX30/2714Z TN21/2706Z BECMG 2620/2622 03010KT BECMG 2708/2710 09019KT

Observations et prévisions météorologiques de plus de 4000 aéroports (messages METAR et TAF).

Les stations disponibles sont représentées par des disques jaunes et rouges sur la carte.

Passer la souris dessus pour voir le nom de la station.

Cliquer dessus pour voir les observations et prévisions météorologiques.

Pour changer de carte: cliquez sur les boutons verts avec une croix noire pour zoomer, sur le bouton vert avec un tiret pour effectuer un zoom arrière, ou sur les flèches vertes pour les cartes adjacentes.


METAR-TAF: